Silver Ray — 3FTI3 — position and weather

sailwx.info

Track history (hours):
 
Tides and Currents Weather Stations Pressure Air Temp Water Temp Dewpoint Dewpoint Depression Visibility Wind Speed Wind Dir Waves Ship Positions

Silver Ray

Last reported at 2017-Nov-08 23:47 UTC. Time now 2017-Nov-25 00:12 UTC.
Position N 28°21' W 015°60'.
Warning: this ship's position is 16 days out of date.

Length 179 m; draft 9 m.

Type: Cargo ship. MMSI: 355137000.

Date/timePositionNaut miles runAvg speedWind from/ knotsBaromVisibWave heightAir tempDewpointWater temp
2017-Nov-08 23:47N 28°21' W 015°60'415.4
2017-Nov-08 23:30N 28°24' W 015°57'815.4
2017-Nov-08 23:00N 28°30' W 015°51'815.0
2017-Nov-08 22:30N 28°36' W 015°46'815.2
2017-Nov-08 22:00N 28°43' W 015°42'815.3
2017-Nov-08 21:30N 28°50' W 015°38'815.1
2017-Nov-08 21:00N 28°57' W 015°35'814.9
2017-Nov-08 20:30N 29°04' W 015°32'714.8
2017-Nov-08 20:00N 29°11' W 015°28'5914.5
2017-Nov-08 15:56N 30°07' W 015°10'1014.5
2017-Nov-08 15:16N 30°17' W 015°06'614.2
2017-Nov-08 14:51N 30°22' W 015°05'614.0
2017-Nov-08 14:26N 30°28' W 015°03'613.9
2017-Nov-08 14:00N 30°34' W 015°01'714.0
2017-Nov-08 13:30N 30°40' W 014°59'714.1
2017-Nov-08 13:00N 30°47' W 014°56'714.2
2017-Nov-08 12:30N 30°54' W 014°54'5714.2
2017-Nov-08 08:30N 31°49' W 014°36'2714.1
2017-Nov-08 06:34N 32°15' W 014°28'314.3
2017-Nov-08 06:22N 32°18' W 014°27'514.5
2017-Nov-08 06:00N 32°23' W 014°25'  
2017-Nov-05 00:10N 49°38' W 003°54'316.0
2017-Nov-05 00:00N 49°39' W 003°50'816.0
2017-Nov-04 23:29N 49°43' W 003°39'815.7
2017-Nov-04 23:01N 49°47' W 003°30'815.4
2017-Nov-04 22:30N 49°51' W 003°19'715.0
2017-Nov-04 22:00N 49°55' W 003°09'714.1
2017-Nov-04 21:30N 49°58' W 002°60'713.3
2017-Nov-04 21:00N 50°01' W 002°50'612.5
2017-Nov-04 20:30N 50°03' W 002°41'611.8
2017-Nov-04 20:00N 50°04' W 002°32'2311.3
2017-Nov-04 17:59N 50°10' W 001°58'612.5
2017-Nov-04 17:30N 50°12' W 001°49'713.6
2017-Nov-04 17:00N 50°14' W 001°39'714.8
2017-Nov-04 16:31N 50°16' W 001°27'815.9
2017-Nov-04 16:00N 50°18' W 001°15'816.9
2017-Nov-04 15:30N 50°20' W 001°03'917.4
2017-Nov-04 15:01N 50°22' W 000°49'917.2
2017-Nov-04 14:30N 50°25' W 000°36'916.9
2017-Nov-04 14:00N 50°27' W 000°23'816.3
2017-Nov-04 13:30N 50°29' W 000°11'815.7
2017-Nov-04 13:01N 50°31' E 000°01'815.4
2017-Nov-04 12:31N 50°33' E 000°12'714.9
2017-Nov-04 12:01N 50°35' E 000°24'714.3
2017-Nov-04 11:31N 50°37' E 000°34'713.7
2017-Nov-04 11:00N 50°41' E 000°44'713.3
2017-Nov-04 10:30N 50°45' E 000°52'713.1
2017-Nov-04 10:00N 50°48' E 001°01'713.1
2017-Nov-04 09:30N 50°52' E 001°10'713.7
2017-Nov-04 09:00N 50°56' E 001°19'815.2
2017-Nov-04 08:30N 51°01' E 001°27'917.2
2017-Nov-04 08:00N 51°07' E 001°36'917.6
2017-Nov-04 07:30N 51°14' E 001°45'917.3
2017-Nov-04 07:00N 51°21' E 001°54'713.8
2017-Nov-04 06:30N 51°23' E 002°04'815.7
2017-Nov-04 06:01N 51°21' E 002°16'816.3
2017-Nov-04 05:30N 51°23' E 002°29'815.7
2017-Nov-04 05:00N 51°23' E 002°41'612.2
2017-Nov-04 04:30N 51°23' E 002°51'714.5
2017-Nov-04 04:01N 51°25' E 003°02'815.2
2017-Nov-04 03:31N 51°25' E 003°14'714.9
2017-Nov-04 03:01N 51°25' E 003°26'612.8
2017-Nov-04 02:30N 51°26' E 003°37'510.4
2017-Nov-04 02:01N 51°23' E 003°43'713.1
2017-Nov-04 01:30N 51°21' E 003°53'611.4
2017-Nov-04 01:00N 51°26' E 003°59'4 9.0
2017-Nov-04 00:30N 51°23' E 004°03'510.9
2017-Nov-04 00:01N 51°24' E 004°12'4 8.9
2017-Nov-03 23:30N 51°21' E 004°17'0 0.6
2017-Nov-03 22:59N 51°21' E 004°17'0 0.0
2017-Nov-03 22:28N 51°21' E 004°17'1 1.6
2017-Nov-03 22:00N 51°20' E 004°18'3 6.7
2017-Nov-03 21:30N 51°17' E 004°20'1 2.2
2017-Nov-03 20:58N 51°16' E 004°22'0 0.0
2017-Nov-03 20:28N 51°16' E 004°22'0 0.0
2017-Nov-03 19:58N 51°16' E 004°22'0 0.0
2017-Nov-03 19:25N 51°16' E 004°22'0 0.0
2017-Nov-03 18:58N 51°16' E 004°22'0 0.0
2017-Nov-03 18:28N 51°16' E 004°22'0 0.0
2017-Nov-03 17:58N 51°16' E 004°22'0 0.0
2017-Nov-03 17:28N 51°16' E 004°22'0 0.0
2017-Nov-03 16:58N 51°16' E 004°22'0 0.0
2017-Nov-03 16:28N 51°16' E 004°22'0 0.0
2017-Nov-03 15:58N 51°16' E 004°22'0 0.0
2017-Nov-03 15:28N 51°16' E 004°22'0 0.0
2017-Nov-03 14:58N 51°16' E 004°22'0 0.0
2017-Nov-03 14:28N 51°16' E 004°22'0 0.0
2017-Nov-03 13:58N 51°16' E 004°22'0 0.0
2017-Nov-03 13:28N 51°16' E 004°22'0 0.0
2017-Nov-03 12:58N 51°16' E 004°22'0 0.0
2017-Nov-03 12:25N 51°16' E 004°22'0 0.0
2017-Nov-03 11:58N 51°16' E 004°22'0 0.0
2017-Nov-03 11:25N 51°16' E 004°22'0 0.0
2017-Nov-03 10:58N 51°16' E 004°22'0 0.0
2017-Nov-03 10:28N 51°16' E 004°22'0 0.0
2017-Nov-03 09:58N 51°16' E 004°22'0 0.0
2017-Nov-03 09:28N 51°16' E 004°22'0 0.0
2017-Nov-03 08:55N 51°16' E 004°22'0 0.0
2017-Nov-03 08:28N 51°16' E 004°22'0 0.0
2017-Nov-03 07:58N 51°16' E 004°22'0 0.0
2017-Nov-03 07:28N 51°16' E 004°22'0 0.0
2017-Nov-03 06:58N 51°16' E 004°22'0 0.0
2017-Nov-03 06:28N 51°16' E 004°22'0 0.0
2017-Nov-03 05:58N 51°16' E 004°22'0 0.0
2017-Nov-03 05:28N 51°16' E 004°22'0 0.0
2017-Nov-03 04:58N 51°16' E 004°22'0 0.0
2017-Nov-03 04:28N 51°16' E 004°22'0 0.0
2017-Nov-03 03:58N 51°16' E 004°22'0 0.0
2017-Nov-03 03:28N 51°16' E 004°22'0 0.0
2017-Nov-03 02:58N 51°16' E 004°22'0 0.0
2017-Nov-03 02:28N 51°16' E 004°22'0 0.0
2017-Nov-03 01:58N 51°16' E 004°22'0 0.0
2017-Nov-03 01:28N 51°16' E 004°22'0 0.0
2017-Nov-03 00:58N 51°16' E 004°22'0 0.0
2017-Nov-03 00:28N 51°16' E 004°22'0 0.0
2017-Nov-02 23:58N 51°16' E 004°22'0 0.0
2017-Nov-02 23:28N 51°16' E 004°22'0 0.0
2017-Nov-02 22:58N 51°16' E 004°22'0 0.0
2017-Nov-02 22:28N 51°16' E 004°22'0 0.0
2017-Nov-02 21:58N 51°16' E 004°22'0 0.0
2017-Nov-02 21:28N 51°16' E 004°22'0 0.0
2017-Nov-02 20:58N 51°16' E 004°22'0 0.0
2017-Nov-02 20:28N 51°16' E 004°22'0 0.0
2017-Nov-02 19:58N 51°16' E 004°22'0 0.0
2017-Nov-02 19:28N 51°16' E 004°22'0 0.0
2017-Nov-02 18:58N 51°16' E 004°22'0 0.0
2017-Nov-02 18:25N 51°16' E 004°22'0 0.0
2017-Nov-02 17:58N 51°16' E 004°22'0 0.0
2017-Nov-02 17:28N 51°16' E 004°22'0 0.0
2017-Nov-02 16:58N 51°16' E 004°22'0 0.0
2017-Nov-02 16:28N 51°16' E 004°22'0 0.0
2017-Nov-02 15:58N 51°16' E 004°22'0 0.0
2017-Nov-02 15:28N 51°16' E 004°22'0 0.0
2017-Nov-02 14:58N 51°16' E 004°22'0 0.0
2017-Nov-02 14:28N 51°16' E 004°22'0 0.0
2017-Nov-02 13:58N 51°16' E 004°22'0 0.0
2017-Nov-02 13:28N 51°16' E 004°22'0 0.0
2017-Nov-02 12:58N 51°16' E 004°22'0 0.0
2017-Nov-02 12:28N 51°16' E 004°22'0 0.0
2017-Nov-02 11:58N 51°16' E 004°22'0 0.0
2017-Nov-02 11:28N 51°16' E 004°22'0 0.0
2017-Nov-02 10:58N 51°16' E 004°22'0 0.0
2017-Nov-02 10:28N 51°16' E 004°22'0 0.0
2017-Nov-02 09:58N 51°16' E 004°22'0 0.0
2017-Nov-02 09:28N 51°16' E 004°22'0 0.0
2017-Nov-02 08:58N 51°16' E 004°22'0 0.0
2017-Nov-02 08:28N 51°16' E 004°22'0 0.0
2017-Nov-02 07:58N 51°16' E 004°22'0 0.0
2017-Nov-02 07:28N 51°16' E 004°22'0 0.0
2017-Nov-02 06:58N 51°16' E 004°22'0 0.0
2017-Nov-02 06:28N 51°16' E 004°22'0 0.0
2017-Nov-02 05:58N 51°16' E 004°22'0 0.0
2017-Nov-02 05:28N 51°16' E 004°22'0 0.0
2017-Nov-02 04:58N 51°16' E 004°22'0 0.0
2017-Nov-02 04:28N 51°16' E 004°22'0 0.0
2017-Nov-02 03:58N 51°16' E 004°22'0 0.0
2017-Nov-02 03:28N 51°16' E 004°22'0 0.0
2017-Nov-02 02:58N 51°16' E 004°22'0 0.0
2017-Nov-02 02:28N 51°16' E 004°22'0 0.0
2017-Nov-02 01:58N 51°16' E 004°22'0 0.0
2017-Nov-02 01:28N 51°16' E 004°22'0 0.0
2017-Nov-02 00:58N 51°16' E 004°22'0 0.0
2017-Nov-02 00:28N 51°16' E 004°22'0 0.0
2017-Nov-01 23:58N 51°16' E 004°22'0 0.0
2017-Nov-01 23:28N 51°16' E 004°22'0 0.0
2017-Nov-01 22:58N 51°16' E 004°22'0 0.0
2017-Nov-01 22:28N 51°16' E 004°22'0 0.0
2017-Nov-01 21:58N 51°16' E 004°22'0 0.0
2017-Nov-01 21:28N 51°16' E 004°22'0 0.0
2017-Nov-01 20:58N 51°16' E 004°22'0 0.0
2017-Nov-01 20:28N 51°16' E 004°22'0 0.0
2017-Nov-01 19:58N 51°16' E 004°22'0 0.0
2017-Nov-01 19:28N 51°16' E 004°22'0 0.0
2017-Nov-01 18:58N 51°16' E 004°22'0 0.0
2017-Nov-01 18:28N 51°16' E 004°22'0 0.0
2017-Nov-01 01:58N 51°16' E 004°22'0 0.0
2017-Nov-01 01:28N 51°16' E 004°22'0 0.0
2017-Nov-01 00:58N 51°16' E 004°22'0 0.0
2017-Nov-01 00:28N 51°16' E 004°22'0 0.0
2017-Oct-31 23:58N 51°16' E 004°22'0 0.0
2017-Oct-31 23:28N 51°16' E 004°22'0 0.0
2017-Oct-31 22:58N 51°16' E 004°22'0 0.0
2017-Oct-31 22:28N 51°16' E 004°22'0 0.0
2017-Oct-31 21:55N 51°16' E 004°22'0 0.0
2017-Oct-31 21:25N 51°16' E 004°22'0 0.0
2017-Oct-31 20:58N 51°16' E 004°22'0 0.0
2017-Oct-31 20:28N 51°16' E 004°22'0 0.0
2017-Oct-31 19:58N 51°16' E 004°22'0 0.0
2017-Oct-31 19:28N 51°16' E 004°22'0 0.0
2017-Oct-31 18:58N 51°16' E 004°22'0 0.0
2017-Oct-31 18:28N 51°16' E 004°22'0 0.0
2017-Oct-31 17:58N 51°16' E 004°22'0 0.0
2017-Oct-31 17:28N 51°16' E 004°22'0 0.0
2017-Oct-31 16:55N 51°16' E 004°22'0 0.0
2017-Oct-31 16:28N 51°16' E 004°22'0 0.0
2017-Oct-31 15:58N 51°16' E 004°22'0 0.0
2017-Oct-31 15:28N 51°16' E 004°22'0 0.0
2017-Oct-31 14:58N 51°16' E 004°22'0 0.0
2017-Oct-31 14:28N 51°16' E 004°22'0 0.0
2017-Oct-31 13:58N 51°16' E 004°22'0 0.0
2017-Oct-31 13:28N 51°16' E 004°22'0 0.0
2017-Oct-31 12:58N 51°16' E 004°22'0 0.0
2017-Oct-31 12:28N 51°16' E 004°22'0 0.0
2017-Oct-31 11:58N 51°16' E 004°22'0 0.0
2017-Oct-31 11:28N 51°16' E 004°22'0 0.0
2017-Oct-31 10:58N 51°16' E 004°22'0 0.0
2017-Oct-31 10:28N 51°16' E 004°22'0 0.0
2017-Oct-31 09:58N 51°16' E 004°22'0 0.0
2017-Oct-31 09:28N 51°16' E 004°22'0 0.0
2017-Oct-31 08:58N 51°16' E 004°22'0 0.0
2017-Oct-31 08:28N 51°16' E 004°22'0 0.0
2017-Oct-31 07:58N 51°16' E 004°22'0 0.0
2017-Oct-31 07:28N 51°16' E 004°22'0 0.0
2017-Oct-31 06:58N 51°16' E 004°22'0 0.0
2017-Oct-31 06:28N 51°16' E 004°22'0 0.0
2017-Oct-31 05:58N 51°16' E 004°22'0 0.0
2017-Oct-31 05:28N 51°16' E 004°22'0 0.0
2017-Oct-31 04:58N 51°16' E 004°22'0 0.0
2017-Oct-31 04:28N 51°16' E 004°22'0 0.0
2017-Oct-31 03:58N 51°16' E 004°22'0 0.0
2017-Oct-31 03:28N 51°16' E 004°22'0 0.0
2017-Oct-31 02:58N 51°16' E 004°22'0 0.0
2017-Oct-31 02:28N 51°16' E 004°22'0 0.0
2017-Oct-31 01:58N 51°16' E 004°22'0 0.0
2017-Oct-31 01:28N 51°16' E 004°22'0 0.5
2017-Oct-31 01:00N 51°16' E 004°21'1 2.9
2017-Oct-31 00:30N 51°18' E 004°20'3 6.9
2017-Oct-31 00:01N 51°21' E 004°18'0 0.6
2017-Oct-30 23:31N 51°21' E 004°17'0 0.0
2017-Oct-30 23:00N 51°21' E 004°17'0 0.0
2017-Oct-30 22:31N 51°21' E 004°17'0 0.6
2017-Oct-30 22:01N 51°21' E 004°17'3 6.6
2017-Oct-30 21:31N 51°23' E 004°13'612.4
2017-Oct-30 21:00N 51°23' E 004°03'4 7.4
2017-Oct-30 20:30N 51°23' E 003°57'714.6
2017-Oct-30 20:00N 51°22' E 003°46'713.4
2017-Oct-30 19:31N 51°26' E 003°38'5 9.2
2017-Oct-30 19:00N 51°25' E 003°30'815.3
2017-Oct-30 18:30N 51°24' E 003°18'816.0
2017-Oct-30 18:00N 51°24' E 003°05'714.5
2017-Oct-30 17:30N 51°22' E 002°54'713.4
2017-Oct-30 17:00N 51°22' E 002°43'612.0
2017-Oct-30 16:30N 51°22' E 002°34'714.6
2017-Oct-30 16:00N 51°20' E 002°23'714.4
2017-Oct-30 15:31N 51°19' E 002°11'815.4
2017-Oct-30 15:01N 51°23' E 002°01'816.1
2017-Oct-30 14:30N 51°28' E 001°51'1313.0
2017-Oct-30 13:31N 51°26' E 001°31'611.0
2017-Oct-30 13:00N 51°28' E 001°23'815.2
2017-Oct-30 12:30N 51°29' E 001°11'713.4
2017-Oct-30 12:01N 51°29' E 001°00'816.2
2017-Oct-30 11:30N 51°28' E 000°47'2 0.9
2017-Oct-30 08:47N 51°26' E 000°44'0 0.0
2017-Oct-30 08:26N 51°26' E 000°44'0 0.0
2017-Oct-30 07:53N 51°26' E 000°44'0 0.0
2017-Oct-30 07:29N 51°26' E 000°44'0 0.1
2017-Oct-30 04:59N 51°26' E 000°44'4 8.0
2017-Oct-30 04:29N 51°28' E 000°50'715.2
2017-Oct-30 04:01N 51°30' E 001°01'714.9
2017-Oct-30 03:30N 51°29' E 001°13'815.5
2017-Oct-30 03:00N 51°28' E 001°26'4 8.0
2017-Oct-30 02:30N 51°25' E 001°30'4 8.6
2017-Oct-30 02:00N 51°28' E 001°34'4 8.5
2017-Oct-30 01:30N 51°33' E 001°32'0 0.5
2017-Oct-30 01:01N 51°33' E 001°31'0 0.1
2017-Oct-30 00:31N 51°33' E 001°32'0 0.1
2017-Oct-30 00:00N 51°33' E 001°32'  
Track history (hours):
 
Tides and Currents Weather Stations Pressure Air Temp Water Temp Dewpoint Dewpoint Depression Visibility Wind Speed Wind Dir Waves Ship Positions

Silver Ray

Last reported at 2017-Nov-08 23:47 UTC. Time now 2017-Nov-25 00:12 UTC.
Position N 28°21' W 015°60'.
Warning: this ship's position is 16 days out of date.

Length 179 m; draft 9 m.

Type: Cargo ship. MMSI: 355137000.

Date/timePositionNaut miles runAvg speedWind from/ knotsBaromVisibWave heightAir tempDewpointWater temp
2017-Nov-08 23:47N 28°21' W 015°60'415.4
2017-Nov-08 23:30N 28°24' W 015°57'815.4
2017-Nov-08 23:00N 28°30' W 015°51'815.0
2017-Nov-08 22:30N 28°36' W 015°46'815.2
2017-Nov-08 22:00N 28°43' W 015°42'815.3
2017-Nov-08 21:30N 28°50' W 015°38'815.1
2017-Nov-08 21:00N 28°57' W 015°35'814.9
2017-Nov-08 20:30N 29°04' W 015°32'714.8
2017-Nov-08 20:00N 29°11' W 015°28'5914.5
2017-Nov-08 15:56N 30°07' W 015°10'1014.5
2017-Nov-08 15:16N 30°17' W 015°06'614.2
2017-Nov-08 14:51N 30°22' W 015°05'614.0
2017-Nov-08 14:26N 30°28' W 015°03'613.9
2017-Nov-08 14:00N 30°34' W 015°01'714.0
2017-Nov-08 13:30N 30°40' W 014°59'714.1
2017-Nov-08 13:00N 30°47' W 014°56'714.2
2017-Nov-08 12:30N 30°54' W 014°54'5714.2
2017-Nov-08 08:30N 31°49' W 014°36'2714.1
2017-Nov-08 06:34N 32°15' W 014°28'314.3
2017-Nov-08 06:22N 32°18' W 014°27'514.5
2017-Nov-08 06:00N 32°23' W 014°25'  
2017-Nov-05 00:10N 49°38' W 003°54'316.0
2017-Nov-05 00:00N 49°39' W 003°50'816.0
2017-Nov-04 23:29N 49°43' W 003°39'815.7
2017-Nov-04 23:01N 49°47' W 003°30'815.4
2017-Nov-04 22:30N 49°51' W 003°19'715.0
2017-Nov-04 22:00N 49°55' W 003°09'714.1
2017-Nov-04 21:30N 49°58' W 002°60'713.3
2017-Nov-04 21:00N 50°01' W 002°50'612.5
2017-Nov-04 20:30N 50°03' W 002°41'611.8
2017-Nov-04 20:00N 50°04' W 002°32'2311.3
2017-Nov-04 17:59N 50°10' W 001°58'612.5
2017-Nov-04 17:30N 50°12' W 001°49'713.6
2017-Nov-04 17:00N 50°14' W 001°39'714.8
2017-Nov-04 16:31N 50°16' W 001°27'815.9
2017-Nov-04 16:00N 50°18' W 001°15'816.9
2017-Nov-04 15:30N 50°20' W 001°03'917.4
2017-Nov-04 15:01N 50°22' W 000°49'917.2
2017-Nov-04 14:30N 50°25' W 000°36'916.9
2017-Nov-04 14:00N 50°27' W 000°23'816.3
2017-Nov-04 13:30N 50°29' W 000°11'815.7
2017-Nov-04 13:01N 50°31' E 000°01'815.4
2017-Nov-04 12:31N 50°33' E 000°12'714.9
2017-Nov-04 12:01N 50°35' E 000°24'714.3
2017-Nov-04 11:31N 50°37' E 000°34'713.7
2017-Nov-04 11:00N 50°41' E 000°44'713.3
2017-Nov-04 10:30N 50°45' E 000°52'713.1
2017-Nov-04 10:00N 50°48' E 001°01'713.1
2017-Nov-04 09:30N 50°52' E 001°10'713.7
2017-Nov-04 09:00N 50°56' E 001°19'815.2
2017-Nov-04 08:30N 51°01' E 001°27'917.2
2017-Nov-04 08:00N 51°07' E 001°36'917.6
2017-Nov-04 07:30N 51°14' E 001°45'917.3
2017-Nov-04 07:00N 51°21' E 001°54'713.8
2017-Nov-04 06:30N 51°23' E 002°04'815.7
2017-Nov-04 06:01N 51°21' E 002°16'816.3
2017-Nov-04 05:30N 51°23' E 002°29'815.7
2017-Nov-04 05:00N 51°23' E 002°41'612.2
2017-Nov-04 04:30N 51°23' E 002°51'714.5
2017-Nov-04 04:01N 51°25' E 003°02'815.2
2017-Nov-04 03:31N 51°25' E 003°14'714.9
2017-Nov-04 03:01N 51°25' E 003°26'612.8
2017-Nov-04 02:30N 51°26' E 003°37'510.4
2017-Nov-04 02:01N 51°23' E 003°43'713.1
2017-Nov-04 01:30N 51°21' E 003°53'611.4
2017-Nov-04 01:00N 51°26' E 003°59'4 9.0
2017-Nov-04 00:30N 51°23' E 004°03'510.9
2017-Nov-04 00:01N 51°24' E 004°12'4 8.9
2017-Nov-03 23:30N 51°21' E 004°17'0 0.6
2017-Nov-03 22:59N 51°21' E 004°17'0 0.0
2017-Nov-03 22:28N 51°21' E 004°17'1 1.6
2017-Nov-03 22:00N 51°20' E 004°18'3 6.7
2017-Nov-03 21:30N 51°17' E 004°20'1 2.2
2017-Nov-03 20:58N 51°16' E 004°22'0 0.0
2017-Nov-03 20:28N 51°16' E 004°22'0 0.0
2017-Nov-03 19:58N 51°16' E 004°22'0 0.0
2017-Nov-03 19:25N 51°16' E 004°22'0 0.0
2017-Nov-03 18:58N 51°16' E 004°22'0 0.0
2017-Nov-03 18:28N 51°16' E 004°22'0 0.0
2017-Nov-03 17:58N 51°16' E 004°22'0 0.0
2017-Nov-03 17:28N 51°16' E 004°22'0 0.0
2017-Nov-03 16:58N 51°16' E 004°22'0 0.0
2017-Nov-03 16:28N 51°16' E 004°22'0 0.0
2017-Nov-03 15:58N 51°16' E 004°22'0 0.0
2017-Nov-03 15:28N 51°16' E 004°22'0 0.0
2017-Nov-03 14:58N 51°16' E 004°22'0 0.0
2017-Nov-03 14:28N 51°16' E 004°22'0 0.0
2017-Nov-03 13:58N 51°16' E 004°22'0 0.0
2017-Nov-03 13:28N 51°16' E 004°22'0 0.0
2017-Nov-03 12:58N 51°16' E 004°22'0 0.0
2017-Nov-03 12:25N 51°16' E 004°22'0 0.0
2017-Nov-03 11:58N 51°16' E 004°22'0 0.0
2017-Nov-03 11:25N 51°16' E 004°22'0 0.0
2017-Nov-03 10:58N 51°16' E 004°22'0 0.0
2017-Nov-03 10:28N 51°16' E 004°22'0 0.0
2017-Nov-03 09:58N 51°16' E 004°22'0 0.0
2017-Nov-03 09:28N 51°16' E 004°22'0 0.0
2017-Nov-03 08:55N 51°16' E 004°22'0 0.0
2017-Nov-03 08:28N 51°16' E 004°22'0 0.0
2017-Nov-03 07:58N 51°16' E 004°22'0 0.0
2017-Nov-03 07:28N 51°16' E 004°22'0 0.0
2017-Nov-03 06:58N 51°16' E 004°22'0 0.0
2017-Nov-03 06:28N 51°16' E 004°22'0 0.0
2017-Nov-03 05:58N 51°16' E 004°22'0 0.0
2017-Nov-03 05:28N 51°16' E 004°22'0 0.0
2017-Nov-03 04:58N 51°16' E 004°22'0 0.0
2017-Nov-03 04:28N 51°16' E 004°22'0 0.0
2017-Nov-03 03:58N 51°16' E 004°22'0 0.0
2017-Nov-03 03:28N 51°16' E 004°22'0 0.0
2017-Nov-03 02:58N 51°16' E 004°22'0 0.0
2017-Nov-03 02:28N 51°16' E 004°22'0 0.0
2017-Nov-03 01:58N 51°16' E 004°22'0 0.0
2017-Nov-03 01:28N 51°16' E 004°22'0 0.0
2017-Nov-03 00:58N 51°16' E 004°22'0 0.0
2017-Nov-03 00:28N 51°16' E 004°22'0 0.0
2017-Nov-02 23:58N 51°16' E 004°22'0 0.0
2017-Nov-02 23:28N 51°16' E 004°22'0 0.0
2017-Nov-02 22:58N 51°16' E 004°22'0 0.0
2017-Nov-02 22:28N 51°16' E 004°22'0 0.0
2017-Nov-02 21:58N 51°16' E 004°22'0 0.0
2017-Nov-02 21:28N 51°16' E 004°22'0 0.0
2017-Nov-02 20:58N 51°16' E 004°22'0 0.0
2017-Nov-02 20:28N 51°16' E 004°22'0 0.0
2017-Nov-02 19:58N 51°16' E 004°22'0 0.0
2017-Nov-02 19:28N 51°16' E 004°22'0 0.0
2017-Nov-02 18:58N 51°16' E 004°22'0 0.0
2017-Nov-02 18:25N 51°16' E 004°22'0 0.0
2017-Nov-02 17:58N 51°16' E 004°22'0 0.0
2017-Nov-02 17:28N 51°16' E 004°22'0 0.0
2017-Nov-02 16:58N 51°16' E 004°22'0 0.0
2017-Nov-02 16:28N 51°16' E 004°22'0 0.0
2017-Nov-02 15:58N 51°16' E 004°22'0 0.0
2017-Nov-02 15:28N 51°16' E 004°22'0 0.0
2017-Nov-02 14:58N 51°16' E 004°22'0 0.0
2017-Nov-02 14:28N 51°16' E 004°22'0 0.0
2017-Nov-02 13:58N 51°16' E 004°22'0 0.0
2017-Nov-02 13:28N 51°16' E 004°22'0 0.0
2017-Nov-02 12:58N 51°16' E 004°22'0 0.0
2017-Nov-02 12:28N 51°16' E 004°22'0 0.0
2017-Nov-02 11:58N 51°16' E 004°22'0 0.0
2017-Nov-02 11:28N 51°16' E 004°22'0 0.0
2017-Nov-02 10:58N 51°16' E 004°22'0 0.0
2017-Nov-02 10:28N 51°16' E 004°22'0 0.0
2017-Nov-02 09:58N 51°16' E 004°22'0 0.0
2017-Nov-02 09:28N 51°16' E 004°22'0 0.0
2017-Nov-02 08:58N 51°16' E 004°22'0 0.0
2017-Nov-02 08:28N 51°16' E 004°22'0 0.0
2017-Nov-02 07:58N 51°16' E 004°22'0 0.0
2017-Nov-02 07:28N 51°16' E 004°22'0 0.0
2017-Nov-02 06:58N 51°16' E 004°22'0 0.0
2017-Nov-02 06:28N 51°16' E 004°22'0 0.0
2017-Nov-02 05:58N 51°16' E 004°22'0 0.0
2017-Nov-02 05:28N 51°16' E 004°22'0 0.0
2017-Nov-02 04:58N 51°16' E 004°22'0 0.0
2017-Nov-02 04:28N 51°16' E 004°22'0 0.0
2017-Nov-02 03:58N 51°16' E 004°22'0 0.0
2017-Nov-02 03:28N 51°16' E 004°22'0 0.0
2017-Nov-02 02:58N 51°16' E 004°22'0 0.0
2017-Nov-02 02:28N 51°16' E 004°22'0 0.0
2017-Nov-02 01:58N 51°16' E 004°22'0 0.0
2017-Nov-02 01:28N 51°16' E 004°22'0 0.0
2017-Nov-02 00:58N 51°16' E 004°22'0 0.0
2017-Nov-02 00:28N 51°16' E 004°22'0 0.0
2017-Nov-01 23:58N 51°16' E 004°22'0 0.0
2017-Nov-01 23:28N 51°16' E 004°22'0 0.0
2017-Nov-01 22:58N 51°16' E 004°22'0 0.0
2017-Nov-01 22:28N 51°16' E 004°22'0 0.0
2017-Nov-01 21:58N 51°16' E 004°22'0 0.0
2017-Nov-01 21:28N 51°16' E 004°22'0 0.0
2017-Nov-01 20:58N 51°16' E 004°22'0 0.0
2017-Nov-01 20:28N 51°16' E 004°22'0 0.0
2017-Nov-01 19:58N 51°16' E 004°22'0 0.0
2017-Nov-01 19:28N 51°16' E 004°22'0 0.0
2017-Nov-01 18:58N 51°16' E 004°22'0 0.0
2017-Nov-01 18:28N 51°16' E 004°22'0 0.0
2017-Nov-01 01:58N 51°16' E 004°22'0 0.0
2017-Nov-01 01:28N 51°16' E 004°22'0 0.0
2017-Nov-01 00:58N 51°16' E 004°22'0 0.0
2017-Nov-01 00:28N 51°16' E 004°22'0 0.0
2017-Oct-31 23:58N 51°16' E 004°22'0 0.0
2017-Oct-31 23:28N 51°16' E 004°22'0 0.0
2017-Oct-31 22:58N 51°16' E 004°22'0 0.0
2017-Oct-31 22:28N 51°16' E 004°22'0 0.0
2017-Oct-31 21:55N 51°16' E 004°22'0 0.0
2017-Oct-31 21:25N 51°16' E 004°22'0 0.0
2017-Oct-31 20:58N 51°16' E 004°22'0 0.0
2017-Oct-31 20:28N 51°16' E 004°22'0 0.0
2017-Oct-31 19:58N 51°16' E 004°22'0 0.0
2017-Oct-31 19:28N 51°16' E 004°22'0 0.0
2017-Oct-31 18:58N 51°16' E 004°22'0 0.0
2017-Oct-31 18:28N 51°16' E 004°22'0 0.0
2017-Oct-31 17:58N 51°16' E 004°22'0 0.0
2017-Oct-31 17:28N 51°16' E 004°22'0 0.0
2017-Oct-31 16:55N 51°16' E 004°22'0 0.0
2017-Oct-31 16:28N 51°16' E 004°22'0 0.0
2017-Oct-31 15:58N 51°16' E 004°22'0 0.0
2017-Oct-31 15:28N 51°16' E 004°22'0 0.0
2017-Oct-31 14:58N 51°16' E 004°22'0 0.0
2017-Oct-31 14:28N 51°16' E 004°22'0 0.0
2017-Oct-31 13:58N 51°16' E 004°22'0 0.0
2017-Oct-31 13:28N 51°16' E 004°22'0 0.0
2017-Oct-31 12:58N 51°16' E 004°22'0 0.0
2017-Oct-31 12:28N 51°16' E 004°22'0 0.0
2017-Oct-31 11:58N 51°16' E 004°22'0 0.0
2017-Oct-31 11:28N 51°16' E 004°22'0 0.0
2017-Oct-31 10:58N 51°16' E 004°22'0 0.0
2017-Oct-31 10:28N 51°16' E 004°22'0 0.0
2017-Oct-31 09:58N 51°16' E 004°22'0 0.0
2017-Oct-31 09:28N 51°16' E 004°22'0 0.0
2017-Oct-31 08:58N 51°16' E 004°22'0 0.0
2017-Oct-31 08:28N 51°16' E 004°22'0 0.0
2017-Oct-31 07:58N 51°16' E 004°22'0 0.0
2017-Oct-31 07:28N 51°16' E 004°22'0 0.0
2017-Oct-31 06:58N 51°16' E 004°22'0 0.0
2017-Oct-31 06:28N 51°16' E 004°22'0 0.0
2017-Oct-31 05:58N 51°16' E 004°22'0 0.0
2017-Oct-31 05:28N 51°16' E 004°22'0 0.0
2017-Oct-31 04:58N 51°16' E 004°22'0 0.0
2017-Oct-31 04:28N 51°16' E 004°22'0 0.0
2017-Oct-31 03:58N 51°16' E 004°22'0 0.0
2017-Oct-31 03:28N 51°16' E 004°22'0 0.0
2017-Oct-31 02:58N 51°16' E 004°22'0 0.0
2017-Oct-31 02:28N 51°16' E 004°22'0 0.0
2017-Oct-31 01:58N 51°16' E 004°22'0 0.0
2017-Oct-31 01:28N 51°16' E 004°22'0 0.5
2017-Oct-31 01:00N 51°16' E 004°21'1 2.9
2017-Oct-31 00:30N 51°18' E 004°20'3 6.9
2017-Oct-31 00:01N 51°21' E 004°18'0 0.6
2017-Oct-30 23:31N 51°21' E 004°17'0 0.0
2017-Oct-30 23:00N 51°21' E 004°17'0 0.0
2017-Oct-30 22:31N 51°21' E 004°17'0 0.6
2017-Oct-30 22:01N 51°21' E 004°17'3 6.6
2017-Oct-30 21:31N 51°23' E 004°13'612.4
2017-Oct-30 21:00N 51°23' E 004°03'4 7.4
2017-Oct-30 20:30N 51°23' E 003°57'714.6
2017-Oct-30 20:00N 51°22' E 003°46'713.4
2017-Oct-30 19:31N 51°26' E 003°38'5 9.2
2017-Oct-30 19:00N 51°25' E 003°30'815.3
2017-Oct-30 18:30N 51°24' E 003°18'816.0
2017-Oct-30 18:00N 51°24' E 003°05'714.5
2017-Oct-30 17:30N 51°22' E 002°54'713.4
2017-Oct-30 17:00N 51°22' E 002°43'612.0
2017-Oct-30 16:30N 51°22' E 002°34'714.6
2017-Oct-30 16:00N 51°20' E 002°23'714.4
2017-Oct-30 15:31N 51°19' E 002°11'815.4
2017-Oct-30 15:01N 51°23' E 002°01'816.1
2017-Oct-30 14:30N 51°28' E 001°51'1313.0
2017-Oct-30 13:31N 51°26' E 001°31'611.0
2017-Oct-30 13:00N 51°28' E 001°23'815.2
2017-Oct-30 12:30N 51°29' E 001°11'713.4
2017-Oct-30 12:01N 51°29' E 001°00'816.2
2017-Oct-30 11:30N 51°28' E 000°47'2 0.9
2017-Oct-30 08:47N 51°26' E 000°44'0 0.0
2017-Oct-30 08:26N 51°26' E 000°44'0 0.0
2017-Oct-30 07:53N 51°26' E 000°44'0 0.0
2017-Oct-30 07:29N 51°26' E 000°44'0 0.1
2017-Oct-30 04:59N 51°26' E 000°44'4 8.0
2017-Oct-30 04:29N 51°28' E 000°50'715.2
2017-Oct-30 04:01N 51°30' E 001°01'714.9
2017-Oct-30 03:30N 51°29' E 001°13'815.5
2017-Oct-30 03:00N 51°28' E 001°26'4 8.0
2017-Oct-30 02:30N 51°25' E 001°30'4 8.6
2017-Oct-30 02:00N 51°28' E 001°34'4 8.5
2017-Oct-30 01:30N 51°33' E 001°32'0 0.5
2017-Oct-30 01:01N 51°33' E 001°31'0 0.1
2017-Oct-30 00:31N 51°33' E 001°32'0 0.1
2017-Oct-30 00:00N 51°33' E 001°32'  

Dump ship's entire track history